sensor_id;sensor_type;location;lat;lon;timestamp;pressure;altitude;pressure_sealevel;temperature;humidity
72055;BME280;59936;51.490;5.436;2023-06-22T00:05:02;101739.19;;;18.63;62.42
72055;BME280;59936;51.490;5.436;2023-06-22T00:07:32;101720.69;;;18.52;62.69
72055;BME280;59936;51.490;5.436;2023-06-22T00:10:00;101719.63;;;18.47;63.46
72055;BME280;59936;51.490;5.436;2023-06-22T00:12:29;101749.06;;;18.50;62.77
72055;BME280;59936;51.490;5.436;2023-06-22T00:14:58;101749.06;;;18.50;62.77
72055;BME280;59936;51.490;5.436;2023-06-22T00:17:26;101735.91;;;18.47;62.88
72055;BME280;59936;51.490;5.436;2023-06-22T00:19:55;101731.34;;;18.47;63.08
72055;BME280;59936;51.490;5.436;2023-06-22T00:22:23;101743.81;;;18.41;63.37
72055;BME280;59936;51.490;5.436;2023-06-22T00:24:52;101742.97;;;18.41;63.12
72055;BME280;59936;51.490;5.436;2023-06-22T00:27:21;101740.25;;;18.41;63.17
72055;BME280;59936;51.490;5.436;2023-06-22T00:29:49;101735.88;;;18.40;63.29
72055;BME280;59936;51.490;5.436;2023-06-22T00:32:18;101735.88;;;18.40;63.29
72055;BME280;59936;51.490;5.436;2023-06-22T00:34:46;101735.41;;;18.36;63.32
72055;BME280;59936;51.490;5.436;2023-06-22T00:37:15;101726.81;;;18.33;63.48
72055;BME280;59936;51.490;5.436;2023-06-22T00:39:44;101729.91;;;18.30;63.52
72055;BME280;59936;51.490;5.436;2023-06-22T00:42:12;101733.25;;;18.25;63.73
72055;BME280;59936;51.490;5.436;2023-06-22T00:44:41;101726.25;;;18.16;64.06
72055;BME280;59936;51.490;5.436;2023-06-22T00:47:09;101726.25;;;18.16;64.06
72055;BME280;59936;51.490;5.436;2023-06-22T00:49:38;101722.81;;;18.07;64.33
72055;BME280;59936;51.490;5.436;2023-06-22T00:52:07;101727.19;;;18.02;64.34
72055;BME280;59936;51.490;5.436;2023-06-22T00:54:37;101719.63;;;17.97;64.40
72055;BME280;59936;51.490;5.436;2023-06-22T00:57:06;101717.44;;;17.93;64.48
72055;BME280;59936;51.490;5.436;2023-06-22T00:59:34;101720.91;;;17.87;64.64
72055;BME280;59936;51.490;5.436;2023-06-22T01:02:03;101718.63;;;17.84;64.79
72055;BME280;59936;51.490;5.436;2023-06-22T01:04:35;101712.38;;;17.83;64.86
72055;BME280;59936;51.490;5.436;2023-06-22T01:13:15;101713.97;;;17.77;65.06
72055;BME280;59936;51.490;5.436;2023-06-22T01:16:35;101719.00;;;17.81;65.02
72055;BME280;59936;51.490;5.436;2023-06-22T01:19:07;101719.00;;;17.81;65.02
72055;BME280;59936;51.490;5.436;2023-06-22T01:21:49;101715.91;;;17.84;65.18
72055;BME280;59936;51.490;5.436;2023-06-22T01:24:24;101715.91;;;17.84;65.18
72055;BME280;59936;51.490;5.436;2023-06-22T01:27:09;101718.63;;;17.84;65.21
72055;BME280;59936;51.490;5.436;2023-06-22T01:29:58;101723.44;;;17.88;65.63
72055;BME280;59936;51.490;5.436;2023-06-22T01:32:30;101724.38;;;17.95;65.39
72055;BME280;59936;51.490;5.436;2023-06-22T01:35:01;101724.28;;;18.03;65.34
72055;BME280;59936;51.490;5.436;2023-06-22T01:37:35;101717.41;;;18.07;65.56
72055;BME280;59936;51.490;5.436;2023-06-22T01:40:08;101715.16;;;18.11;65.94
72055;BME280;59936;51.490;5.436;2023-06-22T01:42:38;101716.44;;;18.15;65.88
72055;BME280;59936;51.490;5.436;2023-06-22T01:45:07;101711.00;;;18.15;65.80
72055;BME280;59936;51.490;5.436;2023-06-22T01:47:38;101715.59;;;18.15;65.94
72055;BME280;59936;51.490;5.436;2023-06-22T01:50:09;101717.47;;;18.14;66.36
72055;BME280;59936;51.490;5.436;2023-06-22T01:52:40;101704.75;;;18.15;66.63
72055;BME280;59936;51.490;5.436;2023-06-22T01:55:09;101700.16;;;18.15;66.12
72055;BME280;59936;51.490;5.436;2023-06-22T01:57:37;101694.75;;;18.15;65.99
72055;BME280;59936;51.490;5.436;2023-06-22T02:00:11;101698.47;;;18.14;66.02
72055;BME280;59936;51.490;5.436;2023-06-22T02:03:19;101717.03;;;18.10;66.26
72055;BME280;59936;51.490;5.436;2023-06-22T02:05:56;101717.03;;;18.10;66.26
72055;BME280;59936;51.490;5.436;2023-06-22T02:08:48;101710.94;;;18.08;66.16
72055;BME280;59936;51.490;5.436;2023-06-22T02:11:20;101707.59;;;18.06;66.16
72055;BME280;59936;51.490;5.436;2023-06-22T02:13:51;101705.72;;;18.07;66.32
72055;BME280;59936;51.490;5.436;2023-06-22T02:16:20;101706.16;;;18.10;66.42
72055;BME280;59936;51.490;5.436;2023-06-22T02:18:51;101706.16;;;18.10;66.42
72055;BME280;59936;51.490;5.436;2023-06-22T02:21:20;101698.59;;;18.06;66.46
72055;BME280;59936;51.490;5.436;2023-06-22T02:23:49;101703.41;;;18.04;66.62
72055;BME280;59936;51.490;5.436;2023-06-22T02:26:18;101707.16;;;18.03;66.67
72055;BME280;59936;51.490;5.436;2023-06-22T02:28:46;101701.28;;;17.99;66.73
72055;BME280;59936;51.490;5.436;2023-06-22T02:31:15;101692.13;;;18.00;66.96
72055;BME280;59936;51.490;5.436;2023-06-22T02:33:43;101692.13;;;18.00;66.96
72055;BME280;59936;51.490;5.436;2023-06-22T02:36:12;101687.25;;;17.96;66.98
72055;BME280;59936;51.490;5.436;2023-06-22T02:38:41;101689.13;;;17.95;66.96
72055;BME280;59936;51.490;5.436;2023-06-22T02:41:10;101674.91;;;17.93;67.04
72055;BME280;59936;51.490;5.436;2023-06-22T02:43:38;101676.50;;;17.88;67.88
72055;BME280;59936;51.490;5.436;2023-06-22T02:46:07;101680.25;;;17.87;67.30
72055;BME280;59936;51.490;5.436;2023-06-22T02:48:35;101680.25;;;17.87;67.30
72055;BME280;59936;51.490;5.436;2023-06-22T02:51:04;101679.38;;;17.80;67.53
72055;BME280;59936;51.490;5.436;2023-06-22T02:53:33;101675.34;;;17.75;67.57
72055;BME280;59936;51.490;5.436;2023-06-22T02:56:02;101672.00;;;17.73;67.57
72055;BME280;59936;51.490;5.436;2023-06-22T02:58:32;101674.72;;;17.73;67.59
72055;BME280;59936;51.490;5.436;2023-06-22T03:01:00;101677.44;;;17.73;67.52
72055;BME280;59936;51.490;5.436;2023-06-22T03:03:29;101678.66;;;17.71;67.53
72055;BME280;59936;51.490;5.436;2023-06-22T03:05:57;101667.53;;;17.66;67.79
72055;BME280;59936;51.490;5.436;2023-06-22T03:08:26;101650.44;;;17.65;68.05
72055;BME280;59936;51.490;5.436;2023-06-22T03:10:56;101650.44;;;17.65;68.05
72055;BME280;59936;51.490;5.436;2023-06-22T03:13:24;101650.81;;;17.62;67.95
72055;BME280;59936;51.490;5.436;2023-06-22T03:15:53;101657.28;;;17.61;67.89
72055;BME280;59936;51.490;5.436;2023-06-22T03:18:21;101655.44;;;17.62;67.86
72055;BME280;59936;51.490;5.436;2023-06-22T03:20:50;101656.66;;;17.59;68.13
72055;BME280;59936;51.490;5.436;2023-06-22T03:23:19;101647.69;;;17.59;68.33
72055;BME280;59936;51.490;5.436;2023-06-22T03:25:47;101649.53;;;17.58;68.35
72055;BME280;59936;51.490;5.436;2023-06-22T03:28:16;101642.44;;;17.57;68.26
72055;BME280;59936;51.490;5.436;2023-06-22T03:30:44;101637.22;;;17.56;68.26
72055;BME280;59936;51.490;5.436;2023-06-22T03:33:13;101644.88;;;17.52;68.40
72055;BME280;59936;51.490;5.436;2023-06-22T03:35:42;101637.97;;;17.50;68.53
72055;BME280;59936;51.490;5.436;2023-06-22T03:38:10;101635.47;;;17.48;68.69
72055;BME280;59936;51.490;5.436;2023-06-22T03:40:39;101636.88;;;17.44;69.18
72055;BME280;59936;51.490;5.436;2023-06-22T03:43:07;101640.41;;;17.44;69.15
72055;BME280;59936;51.490;5.436;2023-06-22T03:45:36;101640.41;;;17.44;69.15
72055;BME280;59936;51.490;5.436;2023-06-22T03:48:05;101634.16;;;17.44;69.01
72055;BME280;59936;51.490;5.436;2023-06-22T03:50:33;101634.16;;;17.44;69.01
72055;BME280;59936;51.490;5.436;2023-06-22T03:53:02;101628.56;;;17.46;69.55
72055;BME280;59936;51.490;5.436;2023-06-22T03:55:31;101628.56;;;17.46;69.55
72055;BME280;59936;51.490;5.436;2023-06-22T03:57:59;101625.28;;;17.50;69.49
72055;BME280;59936;51.490;5.436;2023-06-22T04:00:28;101625.28;;;17.50;69.49
72055;BME280;59936;51.490;5.436;2023-06-22T04:02:56;101621.06;;;17.48;70.06
72055;BME280;59936;51.490;5.436;2023-06-22T04:05:25;101628.16;;;17.49;70.68
72055;BME280;59936;51.490;5.436;2023-06-22T04:07:53;101638.50;;;17.60;69.79
72055;BME280;59936;51.490;5.436;2023-06-22T04:10:22;101638.50;;;17.60;69.79
72055;BME280;59936;51.490;5.436;2023-06-22T04:12:51;101621.22;;;17.61;69.68
72055;BME280;59936;51.490;5.436;2023-06-22T04:15:19;101638.75;;;17.65;69.92
72055;BME280;59936;51.490;5.436;2023-06-22T04:17:48;101626.69;;;17.67;69.56
72055;BME280;59936;51.490;5.436;2023-06-22T04:20:16;101625.28;;;17.71;69.35
72055;BME280;59936;51.490;5.436;2023-06-22T04:22:45;101616.75;;;17.74;69.32
72055;BME280;59936;51.490;5.436;2023-06-22T04:25:13;101627.22;;;17.77;69.36
72055;BME280;59936;51.490;5.436;2023-06-22T04:27:42;101632.66;;;17.84;69.29
72055;BME280;59936;51.490;5.436;2023-06-22T04:30:11;101631.63;;;17.85;69.36
72055;BME280;59936;51.490;5.436;2023-06-22T04:32:40;101630.22;;;17.89;69.35
72055;BME280;59936;51.490;5.436;2023-06-22T04:35:09;101631.34;;;17.95;69.46
72055;BME280;59936;51.490;5.436;2023-06-22T04:37:38;101626.44;;;18.05;69.40
72055;BME280;59936;51.490;5.436;2023-06-22T04:40:06;101624.72;;;18.25;69.28
72055;BME280;59936;51.490;5.436;2023-06-22T04:42:38;101624.72;;;18.25;69.28
72055;BME280;59936;51.490;5.436;2023-06-22T04:45:07;101627.66;;;18.30;69.25
72055;BME280;59936;51.490;5.436;2023-06-22T04:47:36;101627.06;;;18.35;69.49
72055;BME280;59936;51.490;5.436;2023-06-22T04:50:04;101628.78;;;18.42;69.57
72055;BME280;59936;51.490;5.436;2023-06-22T04:52:33;101632.38;;;18.50;69.50
72055;BME280;59936;51.490;5.436;2023-06-22T04:55:02;101637.66;;;18.58;69.46
72055;BME280;59936;51.490;5.436;2023-06-22T04:57:30;101631.47;;;18.77;69.62
72055;BME280;59936;51.490;5.436;2023-06-22T04:59:59;101631.47;;;18.77;69.62
72055;BME280;59936;51.490;5.436;2023-06-22T05:02:28;101628.41;;;18.87;69.14
72055;BME280;59936;51.490;5.436;2023-06-22T05:04:57;101633.88;;;18.93;69.61
72055;BME280;59936;51.490;5.436;2023-06-22T05:07:26;101633.13;;;19.06;69.08
72055;BME280;59936;51.490;5.436;2023-06-22T05:09:54;101626.25;;;19.17;69.10
72055;BME280;59936;51.490;5.436;2023-06-22T05:12:23;101616.88;;;19.26;68.81
72055;BME280;59936;51.490;5.436;2023-06-22T05:14:51;101610.84;;;19.37;68.58
72055;BME280;59936;51.490;5.436;2023-06-22T05:17:20;101624.47;;;19.50;68.29
72055;BME280;59936;51.490;5.436;2023-06-22T05:19:49;101628.25;;;19.56;68.63
72055;BME280;59936;51.490;5.436;2023-06-22T05:22:17;101637.25;;;19.56;68.84
72055;BME280;59936;51.490;5.436;2023-06-22T05:24:46;101630.31;;;19.60;68.32
72055;BME280;59936;51.490;5.436;2023-06-22T05:27:15;101629.06;;;19.63;68.24
72055;BME280;59936;51.490;5.436;2023-06-22T05:29:43;101634.53;;;19.63;68.16
72055;BME280;59936;51.490;5.436;2023-06-22T05:32:12;101640.78;;;19.63;68.10
72055;BME280;59936;51.490;5.436;2023-06-22T05:34:40;101624.91;;;19.67;67.88
72055;BME280;59936;51.490;5.436;2023-06-22T05:37:09;101624.91;;;19.67;67.88
72055;BME280;59936;51.490;5.436;2023-06-22T05:39:38;101621.97;;;19.62;68.27
72055;BME280;59936;51.490;5.436;2023-06-22T05:42:07;101622.22;;;19.73;68.08
72055;BME280;59936;51.490;5.436;2023-06-22T05:44:36;101622.22;;;19.73;68.08
72055;BME280;59936;51.490;5.436;2023-06-22T05:47:05;101619.91;;;19.77;68.03
72055;BME280;59936;51.490;5.436;2023-06-22T05:49:33;101623.28;;;19.86;68.07
72055;BME280;59936;51.490;5.436;2023-06-22T05:52:02;101627.69;;;20.00;67.77
72055;BME280;59936;51.490;5.436;2023-06-22T05:54:31;101621.19;;;20.14;67.43
72055;BME280;59936;51.490;5.436;2023-06-22T05:56:59;101627.88;;;20.31;67.53
72055;BME280;59936;51.490;5.436;2023-06-22T05:59:28;101615.28;;;20.43;67.30
72055;BME280;59936;51.490;5.436;2023-06-22T06:01:56;101623.00;;;20.53;67.54
72055;BME280;59936;51.490;5.436;2023-06-22T06:04:29;101622.97;;;20.66;67.20
72055;BME280;59936;51.490;5.436;2023-06-22T06:06:58;101620.88;;;20.81;66.97
72055;BME280;59936;51.490;5.436;2023-06-22T06:09:26;101615.56;;;20.93;66.92
72055;BME280;59936;51.490;5.436;2023-06-22T06:11:55;101615.31;;;21.08;66.90
72055;BME280;59936;51.490;5.436;2023-06-22T06:14:24;101611.59;;;21.34;66.70
72055;BME280;59936;51.490;5.436;2023-06-22T06:16:52;101611.59;;;21.34;66.70
72055;BME280;59936;51.490;5.436;2023-06-22T06:19:21;101602.75;;;21.38;66.47
72055;BME280;59936;51.490;5.436;2023-06-22T06:21:50;101611.53;;;21.47;66.30
72055;BME280;59936;51.490;5.436;2023-06-22T06:24:18;101612.94;;;21.56;66.22
72055;BME280;59936;51.490;5.436;2023-06-22T06:26:47;101615.63;;;21.63;66.28
72055;BME280;59936;51.490;5.436;2023-06-22T06:29:15;101617.06;;;21.72;66.11
72055;BME280;59936;51.490;5.436;2023-06-22T06:31:44;101617.59;;;21.80;65.99
72055;BME280;59936;51.490;5.436;2023-06-22T06:34:13;101603.69;;;21.89;65.86
72055;BME280;59936;51.490;5.436;2023-06-22T06:36:41;101611.22;;;21.93;65.94
72055;BME280;59936;51.490;5.436;2023-06-22T06:39:10;101609.16;;;21.89;66.26
72055;BME280;59936;51.490;5.436;2023-06-22T06:41:38;101615.66;;;21.88;66.26
72055;BME280;59936;51.490;5.436;2023-06-22T06:44:07;101615.66;;;21.88;66.26
72055;BME280;59936;51.490;5.436;2023-06-22T06:46:35;101606.63;;;21.87;66.35
72055;BME280;59936;51.490;5.436;2023-06-22T06:49:04;101617.50;;;21.94;66.18
72055;BME280;59936;51.490;5.436;2023-06-22T06:51:33;101619.41;;;21.93;66.07
72055;BME280;59936;51.490;5.436;2023-06-22T06:54:01;101612.50;;;21.91;66.21
72055;BME280;59936;51.490;5.436;2023-06-22T06:56:30;101615.88;;;21.86;66.35
72055;BME280;59936;51.490;5.436;2023-06-22T06:58:59;101619.84;;;21.90;66.19
72055;BME280;59936;51.490;5.436;2023-06-22T07:01:27;101619.84;;;21.90;66.19
72055;BME280;59936;51.490;5.436;2023-06-22T07:03:56;101612.94;;;21.88;66.08
72055;BME280;59936;51.490;5.436;2023-06-22T07:06:24;101617.31;;;21.89;66.01
72055;BME280;59936;51.490;5.436;2023-06-22T07:08:53;101614.81;;;21.87;66.00
72055;BME280;59936;51.490;5.436;2023-06-22T07:11:21;101614.38;;;21.90;65.85
72055;BME280;59936;51.490;5.436;2023-06-22T07:13:50;101612.94;;;21.88;65.91
72055;BME280;59936;51.490;5.436;2023-06-22T07:16:19;101626.75;;;21.93;65.78
72055;BME280;59936;51.490;5.436;2023-06-22T07:18:47;101626.75;;;21.93;65.78
72055;BME280;59936;51.490;5.436;2023-06-22T07:21:16;101621.00;;;22.01;65.54
72055;BME280;59936;51.490;5.436;2023-06-22T07:23:44;101609.84;;;22.02;65.45
72055;BME280;59936;51.490;5.436;2023-06-22T07:26:13;101616.31;;;22.08;65.38
72055;BME280;59936;51.490;5.436;2023-06-22T07:28:42;101620.50;;;22.10;65.31
72055;BME280;59936;51.490;5.436;2023-06-22T07:31:10;101620.50;;;22.10;65.31
72055;BME280;59936;51.490;5.436;2023-06-22T07:33:39;101606.31;;;22.20;65.00
72055;BME280;59936;51.490;5.436;2023-06-22T07:36:07;101594.78;;;22.18;65.38
72055;BME280;59936;51.490;5.436;2023-06-22T07:38:36;101594.78;;;22.18;65.38
72055;BME280;59936;51.490;5.436;2023-06-22T07:41:05;101593.22;;;22.10;65.11
72055;BME280;59936;51.490;5.436;2023-06-22T07:43:33;101587.06;;;22.15;65.12
72055;BME280;59936;51.490;5.436;2023-06-22T07:46:09;101583.44;;;22.21;65.20
72055;BME280;59936;51.490;5.436;2023-06-22T07:48:37;101574.31;;;22.34;64.86
72055;BME280;59936;51.490;5.436;2023-06-22T07:51:06;101566.03;;;22.40;64.92
72055;BME280;59936;51.490;5.436;2023-06-22T07:53:34;101557.69;;;22.53;64.66
72055;BME280;59936;51.490;5.436;2023-06-22T07:56:03;101559.56;;;22.71;64.47
72055;BME280;59936;51.490;5.436;2023-06-22T07:58:32;101540.41;;;22.90;64.08
72055;BME280;59936;51.490;5.436;2023-06-22T08:01:01;101530.63;;;23.00;63.88
72055;BME280;59936;51.490;5.436;2023-06-22T08:03:29;101526.50;;;23.09;63.92
72055;BME280;59936;51.490;5.436;2023-06-22T08:05:58;101534.16;;;23.19;63.88
72055;BME280;59936;51.490;5.436;2023-06-22T08:08:27;101516.78;;;23.25;63.79
72055;BME280;59936;51.490;5.436;2023-06-22T08:10:55;101510.91;;;23.40;63.67
72055;BME280;59936;51.490;5.436;2023-06-22T08:13:24;101510.91;;;23.40;63.67
72055;BME280;59936;51.490;5.436;2023-06-22T08:15:52;101508.41;;;23.38;63.64
72055;BME280;59936;51.490;5.436;2023-06-22T08:18:21;101508.41;;;23.38;63.64
72055;BME280;59936;51.490;5.436;2023-06-22T08:20:49;101508.63;;;23.37;63.60
72055;BME280;59936;51.490;5.436;2023-06-22T08:23:18;101505.16;;;23.30;63.80
72055;BME280;59936;51.490;5.436;2023-06-22T08:25:47;101505.16;;;23.30;63.80
72055;BME280;59936;51.490;5.436;2023-06-22T08:28:15;101496.25;;;23.23;63.74
72055;BME280;59936;51.490;5.436;2023-06-22T08:30:44;101489.56;;;23.18;63.91
72055;BME280;59936;51.490;5.436;2023-06-22T08:33:13;101490.78;;;23.23;63.82
72055;BME280;59936;51.490;5.436;2023-06-22T08:35:41;101498.97;;;23.23;63.87
72055;BME280;59936;51.490;5.436;2023-06-22T08:38:10;101498.00;;;23.17;63.87
72055;BME280;59936;51.490;5.436;2023-06-22T08:40:38;101500.97;;;23.15;63.83
72055;BME280;59936;51.490;5.436;2023-06-22T08:43:07;101495.50;;;23.15;63.72
72055;BME280;59936;51.490;5.436;2023-06-22T08:45:36;101504.16;;;23.12;63.76
72055;BME280;59936;51.490;5.436;2023-06-22T08:48:04;101501.44;;;23.12;63.61
72055;BME280;59936;51.490;5.436;2023-06-22T08:50:33;101491.19;;;23.08;63.34
72055;BME280;59936;51.490;5.436;2023-06-22T08:53:02;101491.88;;;23.03;63.37
72055;BME280;59936;51.490;5.436;2023-06-22T08:55:30;101486.88;;;23.00;63.39
72055;BME280;59936;51.490;5.436;2023-06-22T08:57:59;101482.84;;;23.03;63.42
72055;BME280;59936;51.490;5.436;2023-06-22T09:00:27;101492.03;;;23.08;63.38
72055;BME280;59936;51.490;5.436;2023-06-22T09:02:56;101486.75;;;23.07;63.31
72055;BME280;59936;51.490;5.436;2023-06-22T09:05:24;101475.63;;;23.08;63.28
72055;BME280;59936;51.490;5.436;2023-06-22T09:07:53;101474.38;;;23.04;63.48
72055;BME280;59936;51.490;5.436;2023-06-22T09:10:25;101470.03;;;23.03;63.33
72055;BME280;59936;51.490;5.436;2023-06-22T09:12:53;101468.50;;;23.07;63.12
72055;BME280;59936;51.490;5.436;2023-06-22T09:15:22;101467.56;;;23.25;62.74
72055;BME280;59936;51.490;5.436;2023-06-22T09:17:51;101467.56;;;23.25;62.74
72055;BME280;59936;51.490;5.436;2023-06-22T09:20:19;101473.56;;;23.45;62.60
72055;BME280;59936;51.490;5.436;2023-06-22T09:22:48;101473.56;;;23.45;62.60
72055;BME280;59936;51.490;5.436;2023-06-22T09:25:17;101466.78;;;23.71;61.86
72055;BME280;59936;51.490;5.436;2023-06-22T09:27:46;101466.78;;;23.71;61.86
72055;BME280;59936;51.490;5.436;2023-06-22T09:30:15;101465.34;;;23.69;61.82
72055;BME280;59936;51.490;5.436;2023-06-22T09:32:44;101470.84;;;23.80;61.74
72055;BME280;59936;51.490;5.436;2023-06-22T09:35:12;101477.91;;;23.88;61.33
72055;BME280;59936;51.490;5.436;2023-06-22T09:37:41;101469.44;;;23.90;61.26
72055;BME280;59936;51.490;5.436;2023-06-22T09:40:10;101470.25;;;23.90;61.20
72055;BME280;59936;51.490;5.436;2023-06-22T09:42:39;101468.47;;;23.96;61.14
72055;BME280;59936;51.490;5.436;2023-06-22T09:45:08;101464.66;;;23.97;60.88
72055;BME280;59936;51.490;5.436;2023-06-22T09:47:37;101457.88;;;23.99;60.95
72055;BME280;59936;51.490;5.436;2023-06-22T09:50:10;101463.34;;;23.99;61.03
72055;BME280;59936;51.490;5.436;2023-06-22T09:52:38;101458.94;;;23.98;61.06
72055;BME280;59936;51.490;5.436;2023-06-22T09:55:07;101451.69;;;24.04;60.72
72055;BME280;59936;51.490;5.436;2023-06-22T09:57:36;101462.16;;;23.95;60.86
72055;BME280;59936;51.490;5.436;2023-06-22T10:00:06;101465.59;;;23.91;60.83
72055;BME280;59936;51.490;5.436;2023-06-22T10:02:35;101458.50;;;23.90;60.75
72055;BME280;59936;51.490;5.436;2023-06-22T10:05:04;101462.41;;;23.94;60.73
72055;BME280;59936;51.490;5.436;2023-06-22T10:07:32;101462.41;;;23.94;60.73
72055;BME280;59936;51.490;5.436;2023-06-22T10:10:01;101462.88;;;23.79;60.38
72055;BME280;59936;51.490;5.436;2023-06-22T10:12:29;101452.03;;;23.72;60.40
72055;BME280;59936;51.490;5.436;2023-06-22T10:14:58;101459.56;;;23.65;60.61
72055;BME280;59936;51.490;5.436;2023-06-22T10:17:26;101455.25;;;23.69;60.59
72055;BME280;59936;51.490;5.436;2023-06-22T10:19:55;101461.81;;;23.68;60.63
72055;BME280;59936;51.490;5.436;2023-06-22T10:22:24;101461.81;;;23.68;60.63
72055;BME280;59936;51.490;5.436;2023-06-22T10:24:55;101453.84;;;23.67;60.00
72055;BME280;59936;51.490;5.436;2023-06-22T10:27:24;101454.91;;;23.77;59.99
72055;BME280;59936;51.490;5.436;2023-06-22T10:29:52;101463.56;;;23.74;60.06
72055;BME280;59936;51.490;5.436;2023-06-22T10:32:21;101465.00;;;23.77;59.97
72055;BME280;59936;51.490;5.436;2023-06-22T10:34:49;101464.16;;;23.76;59.78
72055;BME280;59936;51.490;5.436;2023-06-22T10:37:18;101460.38;;;23.66;59.63
72055;BME280;59936;51.490;5.436;2023-06-22T10:39:47;101470.50;;;23.65;59.71
72055;BME280;59936;51.490;5.436;2023-06-22T10:42:15;101477.88;;;23.65;59.71
72055;BME280;59936;51.490;5.436;2023-06-22T10:44:44;101485.84;;;23.66;59.84
72055;BME280;59936;51.490;5.436;2023-06-22T10:47:12;101485.84;;;23.66;59.84
72055;BME280;59936;51.490;5.436;2023-06-22T10:49:41;101488.78;;;23.53;60.17
72055;BME280;59936;51.490;5.436;2023-06-22T10:52:10;101506.03;;;23.42;60.53
72055;BME280;59936;51.490;5.436;2023-06-22T10:54:38;101502.78;;;23.33;60.54
72055;BME280;59936;51.490;5.436;2023-06-22T10:57:07;101502.78;;;23.33;60.54
72055;BME280;59936;51.490;5.436;2023-06-22T10:59:35;101499.44;;;22.90;61.49
72055;BME280;59936;51.490;5.436;2023-06-22T11:02:04;101499.44;;;22.90;61.49
72055;BME280;59936;51.490;5.436;2023-06-22T11:04:33;101499.91;;;22.38;63.27
72055;BME280;59936;51.490;5.436;2023-06-22T11:07:02;101513.16;;;22.16;63.29
72055;BME280;59936;51.490;5.436;2023-06-22T11:09:30;101498.50;;;21.93;64.44
72055;BME280;59936;51.490;5.436;2023-06-22T11:11:59;101504.38;;;21.71;65.32
72055;BME280;59936;51.490;5.436;2023-06-22T11:14:28;101507.13;;;21.40;67.18
72055;BME280;59936;51.490;5.436;2023-06-22T11:16:56;101507.13;;;21.40;67.18
72055;BME280;59936;51.490;5.436;2023-06-22T11:19:25;101508.09;;;21.21;67.52
72055;BME280;59936;51.490;5.436;2023-06-22T11:21:53;101508.13;;;21.14;67.87
72055;BME280;59936;51.490;5.436;2023-06-22T11:24:22;101509.28;;;21.00;68.47
72055;BME280;59936;51.490;5.436;2023-06-22T11:26:50;101513.53;;;20.89;68.76
72055;BME280;59936;51.490;5.436;2023-06-22T11:29:19;101519.69;;;20.78;69.33
72055;BME280;59936;51.490;5.436;2023-06-22T11:31:48;101518.09;;;20.50;70.39
72055;BME280;59936;51.490;5.436;2023-06-22T11:34:17;101518.09;;;20.50;70.39
72055;BME280;59936;51.490;5.436;2023-06-22T11:36:45;101537.44;;;20.23;71.94
72055;BME280;59936;51.490;5.436;2023-06-22T11:39:14;101538.72;;;20.20;72.11
72055;BME280;59936;51.490;5.436;2023-06-22T11:41:42;101538.72;;;20.20;72.11
72055;BME280;59936;51.490;5.436;2023-06-22T11:44:17;101514.44;;;20.12;72.84
72055;BME280;59936;51.490;5.436;2023-06-22T11:46:51;101492.28;;;20.02;74.63
72055;BME280;59936;51.490;5.436;2023-06-22T11:49:20;101477.00;;;20.01;73.52
72055;BME280;59936;51.490;5.436;2023-06-22T11:51:54;101473.91;;;19.91;73.85
72055;BME280;59936;51.490;5.436;2023-06-22T11:54:27;101462.38;;;19.89;74.21
72055;BME280;59936;51.490;5.436;2023-06-22T11:56:56;101454.88;;;19.77;75.10
72055;BME280;59936;51.490;5.436;2023-06-22T11:59:24;101454.44;;;19.67;75.90
72055;BME280;59936;51.490;5.436;2023-06-22T12:01:53;101459.06;;;19.67;76.36
72055;BME280;59936;51.490;5.436;2023-06-22T12:04:21;101455.91;;;19.70;75.77
72055;BME280;59936;51.490;5.436;2023-06-22T12:06:50;101449.63;;;19.76;75.71
72055;BME280;59936;51.490;5.436;2023-06-22T12:09:19;101441.03;;;19.79;75.91
72055;BME280;59936;51.490;5.436;2023-06-22T12:11:47;101427.66;;;19.84;75.88
72055;BME280;59936;51.490;5.436;2023-06-22T12:14:16;101420.75;;;19.88;76.25
72055;BME280;59936;51.490;5.436;2023-06-22T12:16:49;101422.84;;;19.93;76.27
72055;BME280;59936;51.490;5.436;2023-06-22T12:19:18;101416.78;;;19.91;77.57
72055;BME280;59936;51.490;5.436;2023-06-22T12:21:46;101422.84;;;19.86;78.01
72055;BME280;59936;51.490;5.436;2023-06-22T12:24:15;101417.19;;;19.88;77.32
72055;BME280;59936;51.490;5.436;2023-06-22T12:26:43;101424.31;;;19.89;77.31
72055;BME280;59936;51.490;5.436;2023-06-22T12:29:12;101434.16;;;19.90;77.68
72055;BME280;59936;51.490;5.436;2023-06-22T12:31:40;101434.16;;;19.90;77.68
72055;BME280;59936;51.490;5.436;2023-06-22T12:34:09;101435.00;;;19.77;79.30
72055;BME280;59936;51.490;5.436;2023-06-22T12:36:38;101425.16;;;19.69;79.36
72055;BME280;59936;51.490;5.436;2023-06-22T12:39:06;101422.66;;;19.68;78.53
72055;BME280;59936;51.490;5.436;2023-06-22T12:41:35;101426.63;;;19.59;79.01
72055;BME280;59936;51.490;5.436;2023-06-22T12:44:03;101428.34;;;19.53;79.78
72055;BME280;59936;51.490;5.436;2023-06-22T12:46:32;101416.84;;;19.44;80.15
72055;BME280;59936;51.490;5.436;2023-06-22T12:49:01;101417.88;;;19.37;80.65
72055;BME280;59936;51.490;5.436;2023-06-22T12:51:29;101422.94;;;19.33;79.38
72055;BME280;59936;51.490;5.436;2023-06-22T12:53:58;101422.50;;;19.23;80.26
72055;BME280;59936;51.490;5.436;2023-06-22T12:56:27;101417.28;;;19.22;79.80
72055;BME280;59936;51.490;5.436;2023-06-22T12:58:55;101406.41;;;19.22;79.61
72055;BME280;59936;51.490;5.436;2023-06-22T13:01:24;101399.94;;;19.29;79.45
72055;BME280;59936;51.490;5.436;2023-06-22T13:03:53;101399.94;;;19.29;79.45
72055;BME280;59936;51.490;5.436;2023-06-22T13:06:22;101398.25;;;19.28;79.46
72055;BME280;59936;51.490;5.436;2023-06-22T13:08:54;101404.09;;;19.32;79.48
72055;BME280;59936;51.490;5.436;2023-06-22T13:11:23;101406.81;;;19.32;79.97